Terminal Aerodrome Forecast
Issued by NWS

Home | Current Version | Previous Version | Text Only | Print | Product List | Glossary On
Versions: 1 2 3 4 5 6 7 8 9 10 11 12 13 14 15 16 17 18 19 20 21 22 23 24 25 26 27 28 29 30
000
FTUS45 KGJT 212003 AAB
TAFEGE
TAF AMD
KEGE 212003Z 2120/2218 24008KT P6SM BKN060 OVC090
     FM220200 12004KT P6SM FEW110 SCT200
     FM221300 VRB03KT P6SM BKN110 BKN130=

USA.gov is the U.S. government's official web portal to all federal, state and local government web resources and services.